TAM3907 SBRJ-SBSP
Flight info
| Callsign | TAM3907 |
|---|---|
| Flight time | N/A |
| Altitude | 30000 |
| Route | NAXOP UZ45 IBDAL |
| Aircraft | A319/M-SDE3FGHIRWY/LB1 |
Departure
| Time | 2026-05-04 13:56 |
|---|---|
| Airport | Santos Dumont Airport (SBRJ) |
Arrival
| Time | N/A |
|---|---|
| Airport | Congonhas–Deputado Freitas Nobre Airport (SBSP) |
| Time | Latitude | Longitude | Altitude | Speed | Heading |
|---|---|---|---|---|---|
| 2026-05-04 13:37 | -22.91245 | -43.16583 | 22 ft | 0 kts | 267° |
| 2026-05-04 13:38 | -22.91319 | -43.16579 | 22 ft | 0 kts | 268° |
| 2026-05-04 13:49 | -22.91319 | -43.16573 | 22 ft | 3 kts | 268° |
| 2026-05-04 13:49 | -22.91319 | -43.16572 | 22 ft | 3 kts | 268° |
| 2026-05-04 13:49 | -22.91318 | -43.16558 | 22 ft | 3 kts | 269° |
| 2026-05-04 13:50 | -22.91317 | -43.16533 | 22 ft | 3 kts | 262° |
| 2026-05-04 13:50 | -22.91312 | -43.16512 | 22 ft | 3 kts | 221° |
| 2026-05-04 13:50 | -22.91297 | -43.16507 | 26 ft | 3 kts | 176° |
| 2026-05-04 13:50 | -22.91282 | -43.16508 | 24 ft | 0 kts | 176° |
| 2026-05-04 13:53 | -22.91289 | -43.16508 | 22 ft | 2 kts | 176° |
| 2026-05-04 13:54 | -22.91344 | -43.16505 | 24 ft | 6 kts | 176° |
| 2026-05-04 13:54 | -22.91395 | -43.16501 | 22 ft | 8 kts | 175° |
| 2026-05-04 13:54 | -22.91491 | -43.16412 | 22 ft | 12 kts | 136° |
| 2026-05-04 13:55 | -22.91559 | -43.16343 | 20 ft | 9 kts | 137° |
| 2026-05-04 13:55 | -22.91625 | -43.16245 | 20 ft | 6 kts | 8° |
| 2026-05-04 13:55 | -22.91612 | -43.16246 | 20 ft | 2 kts | 356° |
| 2026-05-04 13:56 | -22.91424 | -43.16258 | 21 ft | 72 kts | 356° |
| 2026-05-04 13:56 | -22.90611 | -43.16307 | 101 ft | 147 kts | 359° |
| 2026-05-04 13:56 | -22.88594 | -43.16305 | 1143 ft | 156 kts | 22° |
| 2026-05-04 13:57 | -22.87644 | -43.15622 | 1408 ft | 176 kts | 49° |
| 2026-05-04 13:57 | -22.87024 | -43.14400 | 1682 ft | 198 kts | 76° |
| 2026-05-04 13:58 | -22.87692 | -43.09205 | 3696 ft | 257 kts | 99° |
| 2026-05-04 13:58 | -22.89534 | -43.05798 | 5617 ft | 280 kts | 143° |
| 2026-05-04 13:58 | -22.91329 | -43.04958 | 6536 ft | 286 kts | 171° |
| 2026-05-04 13:59 | -22.93313 | -43.04842 | 7493 ft | 286 kts | 188° |
| 2026-05-04 13:59 | -22.95245 | -43.05322 | 8426 ft | 285 kts | 205° |
| 2026-05-04 13:59 | -22.98492 | -43.07740 | 10328 ft | 286 kts | 222° |
| 2026-05-04 14:00 | -23.00082 | -43.09169 | 10693 ft | 309 kts | 222° |
| 2026-05-04 14:00 | -23.03519 | -43.12249 | 11893 ft | 327 kts | 221° |
| 2026-05-04 14:00 | -23.05287 | -43.13830 | 12615 ft | 331 kts | 221° |
| 2026-05-04 14:01 | -23.07076 | -43.15426 | 13360 ft | 335 kts | 220° |
| 2026-05-04 14:01 | -23.08898 | -43.17027 | 14075 ft | 339 kts | 220° |
| 2026-05-04 14:01 | -23.12620 | -43.20248 | 15396 ft | 344 kts | 220° |
| 2026-05-04 14:02 | -23.14500 | -43.21874 | 16064 ft | 346 kts | 221° |
| 2026-05-04 14:02 | -23.16386 | -43.23508 | 16745 ft | 348 kts | 221° |
| 2026-05-04 14:02 | -23.18282 | -43.25157 | 17418 ft | 350 kts | 222° |
| 2026-05-04 14:02 | -23.20163 | -43.26796 | 18076 ft | 352 kts | 222° |
| 2026-05-04 14:03 | -23.22079 | -43.28467 | 18700 ft | 354 kts | 223° |
| 2026-05-04 14:03 | -23.24007 | -43.30152 | 19270 ft | 357 kts | 223° |
| 2026-05-04 14:03 | -23.25947 | -43.31851 | 19853 ft | 359 kts | 223° |
| 2026-05-04 14:03 | -23.27896 | -43.33558 | 20446 ft | 361 kts | 223° |
| 2026-05-04 14:04 | -23.31724 | -43.37127 | 21612 ft | 362 kts | 232° |
| 2026-05-04 14:04 | -23.33217 | -43.39319 | 22205 ft | 361 kts | 242° |
| 2026-05-04 14:04 | -23.34287 | -43.41779 | 22795 ft | 360 kts | 252° |
| 2026-05-04 14:05 | -23.35580 | -43.47080 | 23911 ft | 364 kts | 257° |
| 2026-05-04 14:05 | -23.36206 | -43.49758 | 24387 ft | 366 kts | 256° |
| 2026-05-04 14:05 | -23.36839 | -43.52447 | 24868 ft | 368 kts | 256° |
| 2026-05-04 14:06 | -23.37468 | -43.55114 | 25338 ft | 369 kts | 256° |